Flight Track Log - Related Links

Times and Time Zones

All times are in EST time to prevent confusion due to time zone crossing. See the N513SJ flight status page for this flight to view local times or setup timezone preferences in your user account.

Time Position Orientation Groundspeed Altitude Reporting Facility
EST Latitude Longitude Course Direction KTS MPH feet Rate Location/Type
Tue 04:57:12 PM 27.9667 -82.0333 336° Northwest 97 112 500  Level Tampa TRACON
Tue 04:58:48 PM 28.0000 -82.0500 336° Northwest 142 163 1,900 821 Climbing Tampa TRACON
Tue 05:00:00 PM 28.0500 -82.0667 344° North 144 166 2,800 789 Climbing Tampa TRACON
Tue 05:00:42 PM 28.0833 -82.0667 360° North 139 160 3,400 750 Climbing Tampa TRACON
Tue 05:01:36 PM 28.1167 -82.0667 360° North 137 158 4,000 702 Climbing Tampa TRACON
Tue 05:03:33 PM 28.2000 -82.0500 10° North 139 160 5,400 689 Climbing Orlando TRACON
Tue 05:04:39 PM 28.2333 -82.0167 41° Northeast 156 180 6,100 667 Climbing Orlando TRACON
Tue 05:05:39 PM 28.2500 -81.9833 60° Northeast 157 181 6,800 783 Climbing Orlando TRACON
Tue 05:06:34 PM 28.2833 -81.9500 41° Northeast 162 186 7,600 835 Climbing Orlando TRACON
Tue 05:07:34 PM 28.3167 -81.9167 41° Northeast 164 189 8,400 650 Climbing Orlando TRACON
Tue 05:08:34 PM 28.3500 -81.8833 41° Northeast 168 193 8,900 250 Climbing Orlando TRACON
Tue 05:09:34 PM 28.3667 -81.8167 74° East 210 242 8,900 -53 Level Orlando TRACON
Tue 05:10:28 PM 28.3833 -81.7667 69° East 208 239 8,800  Descending Orlando TRACON
Tue 05:11:28 PM 28.4333 -81.7167 41° Northeast 196 226 8,900 50 Climbing Orlando TRACON
Tue 05:12:29 PM 28.4667 -81.7000 24° Northeast 194 223 8,900  Level Orlando TRACON
Tue 05:13:29 PM 28.5167 -81.6667 30° Northeast 199 229 8,900  Level Orlando TRACON
Tue 05:14:35 PM 28.5667 -81.6167 41° Northeast 200 230 8,900  Level Orlando TRACON
Tue 05:15:29 PM 28.6167 -81.6000 16° North 198 228 8,900  Level Orlando TRACON
Tue 05:16:36 PM 28.6667 -81.5500 41° Northeast 198 228 8,900  Level Orlando TRACON
Tue 05:17:36 PM 28.7167 -81.5167 30° Northeast 197 227 8,900 -38 Level Orlando TRACON
Tue 05:19:13 PM 28.7847 -81.4689 32° Northeast 198 228 8,800  Descending Jacksonville Center
Tue 05:21:03 PM 28.8697 -81.4131 30° Northeast 193 222 8,900 34 Climbing Jacksonville Center
Tue 05:22:09 PM 28.9236 -81.3744 32° Northeast 201 231 8,900  Level Jacksonville Center
Tue 05:23:11 PM 28.9756 -81.3569 16° North 193 222 8,900  Level Jacksonville Center
Tue 05:24:17 PM 29.0381 -81.3442 10° North 196 226 8,900 167 Level Jacksonville Center
Tue 05:25:35 PM 29.0961 -81.3289 13° North 195 224 9,300 391 Climbing Jacksonville Center
Tue 05:26:35 PM 29.1403 -81.3400 348° North 176 203 9,800 450 Climbing Jacksonville Center
Tue 05:27:35 PM 29.1800 -81.3492 349° North 155 178 10,200 500 Climbing Jacksonville Center
Tue 05:28:35 PM 29.2197 -81.3603 346° North 150 173 10,800 600 Climbing Jacksonville Center
Tue 05:29:35 PM 29.2656 -81.3572 North 145 167 11,400 550 Climbing Jacksonville Center
Tue 05:30:35 PM 29.3033 -81.3639 351° North 145 167 11,900 500 Climbing Jacksonville Center
Tue 05:31:35 PM 29.3450 -81.3678 355° North 145 167 12,400 600 Climbing Jacksonville Center
Tue 05:32:35 PM 29.3806 -81.3744 351° North 140 161 13,100 703 Climbing Jacksonville Center
Tue 05:33:26 PM 29.4203 -81.3786 355° North 136 157 13,700 500 Climbing Jacksonville Center
Tue 05:33:35 PM 29.4203 -81.3761 90° East 140 161 13,600 419 Descending Jacksonville Center
Tue 05:34:09 PM 29.4456 -81.3806 351° North 137 158 14,000 600 Climbing Jacksonville Center
Tue 05:34:35 PM 29.4558 -81.3806 360° North 140 161 14,200 436 Climbing Jacksonville Center
Tue 05:35:04 PM 29.4789 -81.3872 346° North 136 157 14,400 300 Climbing Jacksonville Center
Tue 05:35:35 PM 29.4936 -81.3894 353° North 135 155 14,500 393 Climbing Jacksonville Center
Tue 05:36:05 PM 29.5208 -81.3939 352° North 148 170 14,800 300 Climbing Jacksonville Center
Tue 05:36:35 PM 29.5353 -81.3936 North 142 163 14,800 98 Level Jacksonville Center
Tue 05:37:06 PM 29.5667 -81.4025 346° North 162 186 14,900 100 Climbing Jacksonville Center
Tue 05:37:35 PM 29.5836 -81.4022 North 156 180 14,900  Level Jacksonville Center
Tue 05:38:07 PM 29.6128 -81.4092 348° North 170 196 14,900  Level Jacksonville Center
Tue 05:38:35 PM 29.6294 -81.4111 354° North 161 185 14,900  Level Jacksonville Center
Tue 05:39:13 PM 29.6672 -81.4178 351° North 176 203 14,900  Level Jacksonville Center
Tue 05:39:35 PM 29.6775 -81.4178 360° North 167 192 14,900  Level Jacksonville Center
Tue 05:40:35 PM 29.7258 -81.4264 351° North 167 192 14,900 60 Level Jacksonville Center
Tue 05:41:15 PM 29.7633 -81.4308 354° North 170 196 15,000  Climbing Jacksonville Center
Tue 05:41:35 PM 29.7717 -81.4306 North 167 192 14,900  Descending Jacksonville Center
Tue 05:42:16 PM 29.8136 -81.4394 350° North 170 196 15,000  Climbing Jacksonville Center
Tue 05:42:35 PM 29.8178 -81.4394 360° North 162 186 14,900  Descending Jacksonville Center
Tue 05:43:17 PM 29.8617 -81.4436 355° North 170 196 15,000 58 Climbing Jacksonville Center
Tue 05:44:18 PM 29.9097 -81.4525 351° North 171 197 15,000  Level Jacksonville Center
Tue 05:45:26 PM 29.9578 -81.4614 351° North 172 198 15,000  Level Jacksonville Center
Tue 05:46:27 PM 30.0081 -81.4678 354° North 171 197 15,000  Level Jacksonville Center
Tue 05:47:21 PM 30.0497 -81.4744 352° North 171 197 15,000  Level Jacksonville Center
Tue 05:48:23 PM 30.1000 -81.4783 356° North 171 197 15,000  Level Jacksonville Center
Tue 05:49:30 PM 30.1522 -81.4872 352° North 171 197 15,000  Level Jacksonville Center
Tue 05:50:31 PM 30.1983 -81.4914 356° North 172 198 15,000  Level Jacksonville Center
Tue 05:51:32 PM 30.2483 -81.4981 353° North 172 198 15,000  Level Jacksonville Center
Tue 05:52:33 PM 30.2944 -81.5019 356° North 170 196 15,000  Level Jacksonville Center
Tue 05:53:34 PM 30.3425 -81.5086 353° North 180 207 15,000  Level Jacksonville Center
Tue 05:54:29 PM 30.3906 -81.5006 North 181 208 15,000  Level Jacksonville Center
Tue 05:55:36 PM 30.4447 -81.4903 North 184 212 15,000 -67 Level Jacksonville Center
Tue 05:55:58 PM 30.4675 -81.4875 North 184 212 14,900  Descending Jacksonville Center
Tue 05:56:37 PM 30.4989 -81.4822 North 184 212 15,000  Climbing Jacksonville Center
Tue 05:56:58 PM 30.5175 -81.4794 North 184 212 14,900 -74 Descending Jacksonville Center
Tue 05:57:58 PM 30.5697 -81.4714 North 196 226 14,900  Level Jacksonville Center
Tue 05:58:59 PM 30.6217 -81.4636 North 196 226 14,900  Level Jacksonville Center
Tue 05:59:58 PM 30.6717 -81.4433 19° North 185 213 14,900  Level Jacksonville Center
Tue 06:00:59 PM 30.7217 -81.4258 17° North 185 213 14,900  Level Jacksonville Center
Tue 06:01:58 PM 30.7694 -81.4056 20° North 185 213 14,900  Level Jacksonville Center
Tue 06:02:58 PM 30.8214 -81.3856 18° North 185 213 14,900  Level Jacksonville Center
Tue 06:03:58 PM 30.8711 -81.3653 19° North 185 213 14,900  Level Jacksonville Center
Tue 06:04:58 PM 30.9231 -81.3428 20° North 185 213 14,900  Level Jacksonville Center
Tue 06:05:59 PM 30.9731 -81.3225 19° North 185 213 14,900  Level Jacksonville Center
Tue 06:06:58 PM 31.0228 -81.2997 21° North 190 219 14,900  Level Jacksonville Center
Tue 06:07:58 PM 31.0747 -81.2794 18° North 190 219 14,900  Level Jacksonville Center
Tue 06:08:58 PM 31.1247 -81.2569 21° North 190 219 14,900  Level Jacksonville Center
Tue 06:09:58 PM 31.1764 -81.2342 21° North 190 219 14,900  Level Jacksonville Center
Tue 06:10:58 PM 31.2264 -81.2139 19° North 190 219 14,900  Level Jacksonville Center
Tue 06:11:58 PM 31.2783 -81.1933 19° North 190 219 14,900  Level Jacksonville Center
Tue 06:12:58 PM 31.3300 -81.1681 23° Northeast 198 228 14,900 50 Level Jacksonville Center
Tue 06:13:58 PM 31.3778 -81.1478 20° North 198 228 15,000 50 Climbing Jacksonville Center
Tue 06:14:58 PM 31.4339 -81.1247 19° North 192 221 15,000  Level Jacksonville Center
Tue 06:15:58 PM 31.4858 -81.1044 18° North 192 221 15,000  Level Jacksonville Center
Tue 06:16:59 PM 31.5336 -81.0839 20° North 192 221 15,000  Level Jacksonville Center
Tue 06:17:58 PM 31.5894 -81.0586 21° North 192 221 15,000  Level Jacksonville Center
Tue 06:18:58 PM 31.6372 -81.0406 18° North 192 221 15,000  Level Jacksonville Center
Tue 06:19:58 PM 31.6933 -81.0150 21° North 192 221 15,000  Level Jacksonville Center
Tue 06:20:58 PM 31.7453 -80.9944 19° North 192 221 15,000  Level Jacksonville Center
Tue 06:21:58 PM 31.7928 -80.9714 22° Northeast 192 221 15,000  Level Jacksonville Center
Tue 06:22:59 PM 31.8511 -80.9481 19° North 192 221 15,000  Level Jacksonville Center
Tue 06:23:58 PM 31.8986 -80.9300 18° North 197 227 15,000  Level Jacksonville Center
Tue 06:24:58 PM 31.9547 -80.9044 21° North 197 227 15,000  Level Jacksonville Center
Tue 06:25:58 PM 32.0086 -80.8811 20° North 197 227 15,000  Level Jacksonville Center
Tue 06:26:58 PM 32.0564 -80.8631 18° North 197 227 15,000  Level Jacksonville Center
Tue 06:27:58 PM 32.1144 -80.8372 21° North 197 227 15,000 50 Level Jacksonville Center
Tue 06:28:58 PM 32.1600 -80.8164 21° North 197 227 15,100 50 Climbing Jacksonville Center
Tue 06:29:58 PM 32.2181 -80.7906 21° North 197 227 15,100  Level Jacksonville Center
Tue 06:30:58 PM 32.2697 -80.7672 21° North 197 227 15,100 -50 Level Jacksonville Center
Tue 06:31:58 PM 32.3217 -80.7439 21° North 197 227 15,000 -50 Descending Jacksonville Center
Tue 06:32:58 PM 32.3756 -80.7206 20° North 191 220 15,000  Level Jacksonville Center
Tue 06:33:58 PM 32.4272 -80.6972 21° North 191 220 15,000  Level Jacksonville Center
Tue 06:34:58 PM 32.4789 -80.6714 23° Northeast 191 220 15,000  Level Jacksonville Center
Tue 06:35:58 PM 32.5328 -80.6453 22° Northeast 191 220 15,000  Level Jacksonville Center
Tue 06:36:58 PM 32.5844 -80.6219 21° North 191 220 15,000  Level Jacksonville Center
Tue 06:37:58 PM 32.6364 -80.5958 23° Northeast 191 220 15,000  Level Jacksonville Center
Tue 06:38:58 PM 32.6903 -80.5747 18° North 191 220 15,000  Level Jacksonville Center
Tue 06:39:58 PM 32.7439 -80.5486 22° Northeast 191 220 15,000  Level Jacksonville Center
Tue 06:40:58 PM 32.7958 -80.5300 17° North 191 220 15,000  Level Jacksonville Center
Tue 06:41:58 PM 32.8497 -80.5064 20° North 191 220 15,000  Level Jacksonville Center
Tue 06:42:58 PM 32.9014 -80.4878 17° North 191 220 15,000  Level Jacksonville Center
Tue 06:43:58 PM 32.9553 -80.4664 18° North 191 220 15,000  Level Jacksonville Center
Tue 06:44:58 PM 33.0072 -80.4453 19° North 191 220 15,000  Level Jacksonville Center
Tue 06:45:58 PM 33.0589 -80.4239 19° North 191 220 15,000 50 Level Jacksonville Center
Tue 06:46:58 PM 33.1067 -80.4078 16° North 191 220 15,100 50 Climbing Jacksonville Center
Tue 06:47:58 PM 33.1625 -80.3864 18° North 191 220 15,100 -50 Level Jacksonville Center
Tue 06:48:58 PM 33.2100 -80.3678 18° North 191 220 15,000 -50 Descending Jacksonville Center
Tue 06:49:58 PM 33.2639 -80.3464 18° North 191 220 15,000  Level Jacksonville Center
Tue 06:50:58 PM 33.3158 -80.3250 19° North 186 214 15,000 200 Level Jacksonville Center
Tue 06:51:58 PM 33.3675 -80.3061 17° North 186 214 15,400 400 Climbing Jacksonville Center
Tue 06:52:58 PM 33.4131 -80.2897 17° North 180 207 15,800 450 Climbing Jacksonville Center
Tue 06:53:58 PM 33.4567 -80.2761 15° North 174 200 16,300 550 Climbing Jacksonville Center
Tue 06:54:58 PM 33.4981 -80.2625 15° North 157 181 16,900 350 Climbing Jacksonville Center
Tue 06:55:58 PM 33.5436 -80.2461 17° North 152 175 17,000 50 Climbing Jacksonville Center
Tue 06:56:58 PM 33.5933 -80.2272 18° North 166 191 17,000 -50 Level Jacksonville Center
Tue 06:57:59 PM 33.6494 -80.2106 14° North 186 214 16,900  Descending Jacksonville Center
Tue 06:58:58 PM 33.7011 -80.1939 15° North 186 214 17,000 101 Climbing Jacksonville Center
Tue 06:59:58 PM 33.7569 -80.1747 16° North 192 221 17,100  Climbing Jacksonville Center
Tue 07:00:58 PM 33.8089 -80.1556 17° North 197 227 17,000  Descending Jacksonville Center
Tue 07:01:59 PM 33.8647 -80.1364 16° North 197 227 17,100 50 Climbing Jacksonville Center
Tue 07:02:58 PM 33.9186 -80.1197 14° North 202 232 17,100  Level Jacksonville Center
Tue 07:03:58 PM 33.9703 -80.1006 17° North 202 232 17,100 100 Level Jacksonville Center
Tue 07:04:58 PM 34.0242 -80.0811 17° North 202 232 17,300 300 Climbing Jacksonville Center
Tue 07:05:58 PM 34.0739 -80.0647 15° North 197 227 17,700 300 Climbing Jacksonville Center
Tue 07:06:58 PM 34.1172 -80.0481 18° North 178 205 17,900 350 Climbing Jacksonville Center
Tue 07:07:58 PM 34.1608 -80.0292 20° North 165 190 18,400 400 Climbing Jacksonville Center
Tue 07:08:58 PM 34.2083 -80.0100 18° North 165 190 18,700 150 Climbing Jacksonville Center
Tue 07:09:58 PM 34.2578 -79.9908 18° North 170 196 18,700  Level Jacksonville Center
Tue 07:11:30 PM 34.3361 -79.9631 16° North 189 217 18,700  Level Washington Center
Tue 07:12:31 PM 34.3908 -79.9458 15° North 194 223 18,700  Level Washington Center
Tue 07:13:29 PM 34.4481 -79.9261 16° North 199 229 18,700  Level Washington Center
Tue 07:14:30 PM 34.5031 -79.9039 18° North 204 235 18,700  Level Washington Center
Tue 07:15:31 PM 34.5622 -79.8842 15° North 209 241 18,700  Level Washington Center
Tue 07:16:31 PM 34.6172 -79.8619 18° North 209 241 18,700 51 Level Washington Center
Tue 07:17:29 PM 34.6719 -79.8447 15° North 209 241 18,800 151 Climbing Washington Center
Tue 07:18:30 PM 34.7247 -79.8272 15° North 209 241 19,000 50 Climbing Washington Center
Tue 07:19:30 PM 34.7794 -79.8172 North 204 235 18,900 -50 Descending Washington Center
Tue 07:20:31 PM 34.8342 -79.8025 12° North 204 235 18,900  Level Washington Center
Tue 07:21:31 PM 34.8908 -79.7903 10° North 204 235 18,900 -305 Level Washington Center
Tue 07:22:29 PM 34.9500 -79.7731 13° North 204 235 18,300 -458 Descending Washington Center
Tue 07:23:29 PM 35.0172 -79.7586 10° North 209 241 18,000 -496 Descending Washington Center
Tue 07:24:30 PM 35.0803 -79.7467 North 222 255 17,300 -750 Descending Washington Center
Tue 07:25:29 PM 35.1414 -79.7322 11° North 222 255 16,500 -700 Descending Washington Center
Tue 07:26:30 PM 35.2025 -79.7150 13° North 222 255 15,900 -590 Descending Washington Center
Tue 07:28:00 PM 35.2717 -79.6737 26° Northeast  Level FlightAware Approximate
Tue 07:35:00 PM 35.6244 -79.5752 11° North  Level FlightAware Approximate
Tue 07:36:00 PM 35.6749 -79.5635 11° North  Level FlightAware Approximate
Tue 07:37:00 PM 35.7253 -79.5519 11° North  Level FlightAware Approximate
Tue 07:38:00 PM 35.7756 -79.5395 11° North  Level FlightAware Approximate
Tue 07:39:00 PM 35.8259 -79.5269 11° North  Level FlightAware Approximate
Tue 07:40:00 PM 35.8762 -79.5143 11° North  Level FlightAware Approximate
Tue 07:41:00 PM 35.9265 -79.5018 11° North  Level FlightAware Approximate
Tue 07:42:00 PM 35.9768 -79.4892 11° North  Level FlightAware Approximate
Tue 07:43:00 PM 36.0256 -79.4705 22° Northeast  Level FlightAware Approximate

Login

Don't have an account? Register now (free) for customized features, flight alerts, and more!